Time;durP1;ratioP1;P1;durP2;ratioP2;P2;SDS_P1;SDS_P2;PMS_P1;PMS_P2;Temp;Humidity;BMP_temperature;BMP_pressure;BME280_temperature;BME280_humidity;BME280_pressure;Samples;Min_cycle;Max_cycle;Signal;HPM_P1;HPM_P2
2023/12/31 00:00:00;;;;;;;5.90;3.10;;;;;;;7.60;100.00;100472.72;5087525;27;20028;-73
2023/12/31 00:02:25;;;;;;;4.45;2.97;;;;;;;7.60;100.00;100467.41;5090168;27;20540;-74
2023/12/31 00:04:51;;;;;;;8.27;2.53;;;;;;;7.56;100.00;100474.69;5100812;27;20036;-73
2023/12/31 00:07:16;;;;;;;3.00;2.50;;;;;;;7.59;100.00;100468.38;5074140;28;20122;-73
2023/12/31 00:09:42;;;;;;;5.60;2.60;;;;;;;7.63;100.00;100464.56;5090739;27;20031;-73
2023/12/31 00:12:08;;;;;;;4.03;2.30;;;;;;;7.68;100.00;100465.16;5100450;27;20036;-73
2023/12/31 00:14:33;;;;;;;4.13;2.38;;;;;;;7.76;100.00;100461.13;5106219;27;20039;-74
2023/12/31 00:16:58;;;;;;;4.32;2.42;;;;;;;7.79;100.00;100449.50;5101563;27;20036;-74
2023/12/31 00:19:25;;;;;;;5.25;2.40;;;;;;;7.71;100.00;100443.78;5093813;27;20788;-73
2023/12/31 00:21:50;;;;;;;3.53;1.88;;;;;;;7.68;100.00;100447.47;5092204;27;20040;-73
2023/12/31 00:24:16;;;;;;;3.50;2.15;;;;;;;7.70;100.00;100450.88;5102320;28;20334;-73
2023/12/31 00:26:41;;;;;;;4.38;2.30;;;;;;;7.75;100.00;100438.19;5087666;27;20047;-73
2023/12/31 00:29:10;;;;;;;3.92;2.13;;;;;;;7.78;100.00;100434.50;5105776;27;20115;-74
2023/12/31 00:31:37;;;;;;;4.50;2.40;;;;;;;7.74;100.00;100420.56;5104530;27;20128;-73
2023/12/31 00:34:03;;;;;;;5.15;2.40;;;;;;;7.73;100.00;100416.22;5103907;27;20051;-74
2023/12/31 00:36:31;;;;;;;5.45;2.22;;;;;;;7.71;100.00;100418.06;5112054;27;20047;-73
2023/12/31 00:38:56;;;;;;;4.32;2.17;;;;;;;7.80;100.00;100411.38;5109235;27;20036;-73
2023/12/31 00:41:22;;;;;;;5.35;1.98;;;;;;;7.84;100.00;100410.28;5114807;27;20042;-73
2023/12/31 00:43:47;;;;;;;3.85;2.53;;;;;;;7.89;100.00;100402.03;5107094;27;20036;-73
2023/12/31 00:46:13;;;;;;;5.38;2.75;;;;;;;8.00;100.00;100396.94;5110964;27;20040;-74
2023/12/31 00:48:39;;;;;;;3.10;2.30;;;;;;;8.08;100.00;100392.00;5111341;27;20036;-74
2023/12/31 00:51:04;;;;;;;4.28;2.35;;;;;;;8.19;100.00;100386.06;5118835;27;20031;-73
2023/12/31 00:53:30;;;;;;;2.47;2.10;;;;;;;8.22;100.00;100370.78;5120163;27;20071;-74
2023/12/31 00:55:55;;;;;;;6.35;1.90;;;;;;;8.28;100.00;100366.88;5109889;27;20062;-73
2023/12/31 00:58:21;;;;;;;4.20;2.10;;;;;;;8.31;100.00;100366.69;5117123;27;20036;-74
2023/12/31 01:00:47;;;;;;;3.42;2.00;;;;;;;8.42;100.00;100358.94;5110195;28;20040;-73
2023/12/31 01:03:13;;;;;;;2.33;1.70;;;;;;;8.45;100.00;100347.28;5116852;27;20043;-73
2023/12/31 01:05:38;;;;;;;2.90;2.17;;;;;;;8.51;100.00;100334.47;5111304;28;20517;-74
2023/12/31 01:08:04;;;;;;;5.57;2.35;;;;;;;8.53;100.00;100340.56;5112667;27;20036;-73
2023/12/31 01:10:29;;;;;;;2.25;1.83;;;;;;;8.61;100.00;100331.22;5101256;28;20470;-74
2023/12/31 01:12:55;;;;;;;8.40;2.00;;;;;;;8.51;100.00;100329.16;5104461;27;20519;-74
2023/12/31 01:15:22;;;;;;;3.13;2.17;;;;;;;8.42;100.00;100319.09;5101874;27;20032;-74
2023/12/31 01:17:48;;;;;;;2.40;1.85;;;;;;;8.30;100.00;100311.88;5100337;27;20071;-74
2023/12/31 01:20:15;;;;;;;4.10;1.73;;;;;;;8.16;100.00;100301.25;5088477;28;20130;-73
2023/12/31 01:22:41;;;;;;;4.43;1.80;;;;;;;8.16;100.00;100295.94;5104629;27;20092;-73
2023/12/31 01:25:07;;;;;;;3.88;2.10;;;;;;;8.14;100.00;100290.75;5097475;27;20378;-73
2023/12/31 01:27:32;;;;;;;2.28;1.75;;;;;;;8.10;100.00;100288.38;5100510;27;20044;-74
2023/12/31 01:29:58;;;;;;;7.80;2.40;;;;;;;8.07;100.00;100284.09;5093890;28;20028;-73
2023/12/31 01:32:23;;;;;;;4.65;2.42;;;;;;;8.10;100.00;100275.09;5099273;27;20900;-73
2023/12/31 01:34:49;;;;;;;5.28;2.30;;;;;;;8.09;100.00;100273.38;5097423;27;20437;-73
2023/12/31 01:37:15;;;;;;;4.55;2.50;;;;;;;8.07;100.00;100269.97;5078436;28;20588;-73
2023/12/31 01:39:41;;;;;;;6.93;3.33;;;;;;;7.98;100.00;100268.72;5109509;27;20045;-73
2023/12/31 01:42:07;;;;;;;4.28;2.97;;;;;;;7.93;100.00;100269.03;5104154;27;20044;-74
2023/12/31 01:44:33;;;;;;;4.57;2.85;;;;;;;8.01;100.00;100268.53;5098633;27;20032;-73
2023/12/31 01:46:59;;;;;;;5.25;2.90;;;;;;;7.94;100.00;100261.91;5097531;27;20047;-73
2023/12/31 01:49:26;;;;;;;3.50;3.00;;;;;;;8.00;100.00;100269.50;5100234;27;20556;-74
2023/12/31 01:51:52;;;;;;;4.85;2.80;;;;;;;7.94;100.00;100270.72;5096088;27;20171;-74
2023/12/31 01:54:18;;;;;;;5.45;3.30;;;;;;;7.95;100.00;100263.63;5092890;27;20138;-74
2023/12/31 01:56:44;;;;;;;3.88;2.88;;;;;;;7.90;100.00;100255.94;5099197;27;20028;-74
2023/12/31 01:59:11;;;;;;;5.20;2.72;;;;;;;7.99;100.00;100254.53;5079597;28;20086;-74
2023/12/31 02:01:37;;;;;;;4.22;3.00;;;;;;;7.92;100.00;100247.88;5098797;27;20106;-74
2023/12/31 02:04:02;;;;;;;5.18;2.97;;;;;;;7.93;100.00;100239.81;5077500;28;20036;-74
2023/12/31 02:06:28;;;;;;;6.93;3.00;;;;;;;7.87;100.00;100239.34;5098690;27;20024;-74
2023/12/31 02:08:53;;;;;;;4.60;2.85;;;;;;;7.87;100.00;100240.19;5095965;27;20024;-73
2023/12/31 02:11:19;;;;;;;5.50;2.58;;;;;;;7.88;100.00;100236.59;5097982;27;20035;-74
2023/12/31 02:13:44;;;;;;;3.78;2.70;;;;;;;7.88;100.00;100226.00;5079546;27;20608;-73
2023/12/31 02:16:14;;;;;;;5.22;2.47;;;;;;;7.91;100.00;100216.97;5078688;28;20097;-73
2023/12/31 02:18:39;;;;;;;7.38;3.13;;;;;;;7.95;100.00;100210.53;5094616;27;21009;-73
2023/12/31 02:21:05;;;;;;;2.97;2.70;;;;;;;7.93;100.00;100200.00;5090824;28;20039;-74
2023/12/31 02:23:32;;;;;;;5.15;2.88;;;;;;;7.92;100.00;100192.97;5080987;27;20044;-74
2023/12/31 02:26:08;;;;;;;6.53;2.85;;;;;;;7.93;100.00;100183.19;5102095;27;20073;-74
2023/12/31 02:28:34;;;;;;;6.60;2.65;;;;;;;7.89;100.00;100179.91;5102385;27;20143;-74
2023/12/31 02:30:59;;;;;;;4.13;2.65;;;;;;;7.91;100.00;100177.16;5090118;27;20036;-73
2023/12/31 02:33:25;;;;;;;8.75;2.78;;;;;;;7.95;100.00;100171.56;5101653;27;20039;-73
2023/12/31 02:35:50;;;;;;;6.80;3.15;;;;;;;7.96;100.00;100165.28;5103976;27;20032;-73
2023/12/31 02:38:16;;;;;;;8.63;3.55;;;;;;;7.89;100.00;100152.50;5066774;27;20163;-73
2023/12/31 02:40:41;;;;;;;2.60;2.20;;;;;;;7.97;100.00;100151.06;5072492;28;20036;-73
2023/12/31 02:43:07;;;;;;;3.78;2.50;;;;;;;7.96;100.00;100138.75;5101767;27;20039;-73
2023/12/31 02:45:32;;;;;;;3.97;2.47;;;;;;;7.98;100.00;100147.47;5087785;27;20046;-73
2023/12/31 02:47:58;;;;;;;3.45;2.47;;;;;;;7.95;100.00;100142.34;5078906;27;20039;-73
2023/12/31 02:50:23;;;;;;;5.80;2.80;;;;;;;7.99;100.00;100146.53;5098806;27;20830;-74
2023/12/31 02:52:50;;;;;;;2.83;2.20;;;;;;;8.02;100.00;100133.03;5103637;27;20036;-73
2023/12/31 02:55:15;;;;;;;3.38;2.10;;;;;;;7.99;100.00;100130.59;5075448;28;20123;-74
2023/12/31 02:57:41;;;;;;;5.47;2.28;;;;;;;7.98;100.00;100130.66;5096171;27;20039;-74
2023/12/31 03:00:06;;;;;;;4.97;2.40;;;;;;;7.97;100.00;100118.34;5096495;27;20039;-73
2023/12/31 03:02:32;;;;;;;5.50;2.00;;;;;;;7.94;100.00;100111.44;5091046;28;20044;-73
2023/12/31 03:04:57;;;;;;;3.42;2.08;;;;;;;7.97;100.00;100103.28;5079385;27;20035;-73
2023/12/31 03:07:23;;;;;;;4.03;2.10;;;;;;;7.99;100.00;100098.72;5094843;27;20328;-73
2023/12/31 03:09:48;;;;;;;3.28;1.67;;;;;;;8.00;100.00;100095.13;5102512;27;20051;-73
2023/12/31 03:12:15;;;;;;;4.35;1.98;;;;;;;7.92;100.00;100093.91;5077111;27;20036;-74
2023/12/31 03:14:41;;;;;;;3.08;1.98;;;;;;;7.98;100.00;100088.19;5099471;27;20568;-73
2023/12/31 03:17:06;;;;;;;5.18;2.40;;;;;;;8.04;100.00;100086.00;5085516;27;20061;-74
2023/12/31 03:19:35;;;;;;;2.60;2.20;;;;;;;8.07;100.00;100070.81;5096965;27;20039;-74
2023/12/31 03:22:01;;;;;;;3.83;2.00;;;;;;;8.09;100.00;100064.47;5097549;27;20179;-73
2023/12/31 03:24:27;;;;;;;3.45;2.45;;;;;;;8.04;100.00;100056.81;5073688;28;20028;-73
2023/12/31 03:26:53;;;;;;;5.55;2.28;;;;;;;8.04;100.00;100048.00;5086627;27;20031;-74
2023/12/31 03:29:19;;;;;;;5.07;2.47;;;;;;;8.13;100.00;100049.16;5101796;27;20028;-74
2023/12/31 03:31:45;;;;;;;5.32;2.35;;;;;;;8.11;100.00;100040.47;5111385;27;20605;-74
2023/12/31 03:34:10;;;;;;;3.50;2.10;;;;;;;8.15;100.00;100028.69;5081617;27;20082;-73
2023/12/31 03:36:36;;;;;;;7.10;2.40;;;;;;;8.16;100.00;100028.56;5074236;28;20036;-74
2023/12/31 03:39:02;;;;;;;3.55;2.20;;;;;;;8.12;100.00;100035.03;5090847;28;20035;-73
2023/12/31 03:41:28;;;;;;;5.07;2.22;;;;;;;8.18;100.00;100017.84;5090995;27;20032;-73
2023/12/31 03:43:54;;;;;;;7.43;2.92;;;;;;;8.14;100.00;100013.72;5077716;27;20146;-73
2023/12/31 03:46:20;;;;;;;8.13;3.00;;;;;;;8.17;100.00;99994.91;5106485;27;20032;-74
2023/12/31 03:48:46;;;;;;;4.18;2.33;;;;;;;8.19;100.00;99995.66;5111417;27;20032;-74
2023/12/31 03:51:13;;;;;;;2.80;2.00;;;;;;;8.22;100.00;99990.97;5107376;27;20131;-74
2023/12/31 03:53:40;;;;;;;8.43;2.95;;;;;;;8.22;100.00;99977.69;5066824;27;20036;-73
2023/12/31 03:56:08;;;;;;;5.07;2.47;;;;;;;8.21;100.00;99970.69;5088106;27;20148;-74
2023/12/31 03:58:35;;;;;;;2.95;2.20;;;;;;;8.21;100.00;99964.53;5090942;27;20085;-74
2023/12/31 04:01:03;;;;;;;4.35;2.35;;;;;;;8.18;100.00;99959.41;5080387;27;20027;-73
2023/12/31 04:03:29;;;;;;;5.70;2.13;;;;;;;8.29;100.00;99947.13;5101479;27;20046;-74
2023/12/31 04:05:54;;;;;;;4.50;2.55;;;;;;;8.31;100.00;99939.91;5091419;27;20618;-74
2023/12/31 04:08:20;;;;;;;5.13;2.17;;;;;;;8.24;100.00;99940.44;5101039;27;20036;-74
2023/12/31 04:10:46;;;;;;;2.67;2.03;;;;;;;8.26;100.00;99931.41;5099841;27;20970;-74
2023/12/31 04:13:11;;;;;;;3.97;2.25;;;;;;;8.27;100.00;99924.28;5086893;28;20032;-74
2023/12/31 04:15:37;;;;;;;3.17;2.33;;;;;;;8.35;100.00;99926.41;5091380;28;20032;-74
2023/12/31 04:18:03;;;;;;;5.15;2.25;;;;;;;8.29;100.00;99915.25;5078343;27;20963;-73
2023/12/31 04:20:28;;;;;;;4.63;2.65;;;;;;;8.25;100.00;99912.91;5091260;28;20118;-74
2023/12/31 04:22:55;;;;;;;4.32;2.38;;;;;;;8.23;100.00;99910.38;5072449;28;20044;-74
2023/12/31 04:25:20;;;;;;;4.50;2.70;;;;;;;8.24;100.00;99903.25;5091549;28;20065;-74
2023/12/31 04:27:46;;;;;;;5.18;2.72;;;;;;;8.16;100.00;99892.31;5083777;28;20568;-74
2023/12/31 04:30:12;;;;;;;3.58;2.78;;;;;;;8.20;100.00;99878.72;5084180;27;20460;-74
2023/12/31 04:32:38;;;;;;;3.42;2.17;;;;;;;8.19;100.00;99879.66;5104996;27;20575;-73
2023/12/31 04:35:04;;;;;;;4.22;2.60;;;;;;;8.20;100.00;99862.78;5090944;27;20032;-73
2023/12/31 04:37:30;;;;;;;3.72;2.47;;;;;;;8.26;100.00;99870.31;5086877;28;20556;-74
2023/12/31 04:39:57;;;;;;;3.72;2.53;;;;;;;8.25;100.00;99860.66;5095745;27;21207;-73
2023/12/31 04:42:23;;;;;;;4.25;2.70;;;;;;;8.31;100.00;99859.38;5099948;27;20040;-73
2023/12/31 04:44:49;;;;;;;7.00;2.75;;;;;;;8.26;100.00;99854.38;5084959;28;20024;-73
2023/12/31 04:47:14;;;;;;;7.85;2.85;;;;;;;8.35;100.00;99849.38;5099362;27;20058;-73
2023/12/31 04:49:42;;;;;;;3.05;2.50;;;;;;;8.31;100.00;99836.31;5098060;27;20029;-74
2023/12/31 04:52:08;;;;;;;10.15;4.07;;;;;;;8.39;100.00;99837.63;5086846;28;20038;-73
2023/12/31 04:54:34;;;;;;;3.75;2.60;;;;;;;8.53;100.00;99829.50;5099942;27;20039;-74
2023/12/31 04:57:00;;;;;;;6.55;3.17;;;;;;;8.35;100.00;99829.00;5084144;27;20077;-74
2023/12/31 04:59:26;;;;;;;6.25;3.10;;;;;;;8.43;100.00;99823.16;5067095;27;20075;-74
2023/12/31 05:01:52;;;;;;;5.60;2.90;;;;;;;8.40;100.00;99824.22;5096818;27;20063;-73
2023/12/31 05:04:19;;;;;;;4.63;2.75;;;;;;;8.54;100.00;99823.25;5096018;27;20078;-74
2023/12/31 05:06:45;;;;;;;6.78;3.22;;;;;;;8.45;100.00;99814.13;5079331;27;20040;-74
2023/12/31 05:09:11;;;;;;;4.57;2.97;;;;;;;8.44;100.00;99817.75;5092794;27;20536;-74
2023/12/31 05:11:37;;;;;;;5.85;3.17;;;;;;;8.46;100.00;99801.69;5104802;27;20039;-74
2023/12/31 05:14:03;;;;;;;7.65;3.00;;;;;;;8.41;100.00;99809.97;5099238;28;20036;-74
2023/12/31 05:16:32;;;;;;;6.18;3.75;;;;;;;8.51;100.00;99802.22;5086268;27;20032;-74
2023/12/31 05:18:58;;;;;;;6.25;3.53;;;;;;;8.45;100.00;99797.34;5108516;27;20032;-73
2023/12/31 05:21:24;;;;;;;8.30;4.50;;;;;;;8.54;100.00;99792.22;5111938;27;20036;-74
2023/12/31 05:23:50;;;;;;;5.72;4.20;;;;;;;8.40;100.00;99781.72;5091696;28;20043;-74
2023/12/31 05:26:16;;;;;;;6.75;3.83;;;;;;;8.52;100.00;99758.72;5115686;27;20038;-73
2023/12/31 05:28:42;;;;;;;6.63;3.92;;;;;;;8.54;100.00;99754.19;5107497;27;20039;-74
2023/12/31 05:31:08;;;;;;;5.93;4.50;;;;;;;8.67;100.00;99762.94;5111766;27;20078;-73
2023/12/31 05:33:34;;;;;;;8.65;4.28;;;;;;;8.57;100.00;99765.41;5113273;27;20437;-74
2023/12/31 05:35:59;;;;;;;5.47;4.18;;;;;;;8.52;100.00;99762.25;5117164;27;20024;-74
2023/12/31 05:38:25;;;;;;;6.15;4.50;;;;;;;8.47;100.00;99753.75;5092390;28;20053;-74
2023/12/31 05:40:50;;;;;;;7.47;4.57;;;;;;;8.39;100.00;99753.47;5098555;28;20040;-73
2023/12/31 05:43:16;;;;;;;5.32;4.20;;;;;;;8.39;100.00;99748.16;5103669;28;20040;-73
2023/12/31 05:45:41;;;;;;;7.40;4.45;;;;;;;8.39;100.00;99736.69;5093903;28;20037;-74
2023/12/31 05:48:07;;;;;;;8.77;4.70;;;;;;;8.51;100.00;99738.44;5106386;27;20067;-73
2023/12/31 05:50:33;;;;;;;7.82;4.38;;;;;;;8.60;100.00;99729.81;5098010;28;20485;-73
2023/12/31 05:52:59;;;;;;;8.93;5.25;;;;;;;8.57;100.00;99736.19;5101318;28;20070;-73
2023/12/31 05:55:24;;;;;;;8.48;4.97;;;;;;;8.45;100.00;99722.97;5098230;28;20028;-73
2023/12/31 05:57:50;;;;;;;7.05;3.85;;;;;;;8.46;100.00;99719.34;5103390;28;20043;-75
2023/12/31 06:00:16;;;;;;;6.68;5.13;;;;;;;8.49;100.00;99722.63;5098947;28;20032;-74
2023/12/31 06:02:42;;;;;;;5.55;4.10;;;;;;;8.42;100.00;99710.72;5112275;28;20048;-72
2023/12/31 06:05:08;;;;;;;6.18;4.80;;;;;;;8.40;100.00;99696.72;5079417;28;20033;-74
2023/12/31 06:07:34;;;;;;;9.02;5.25;;;;;;;8.38;100.00;99690.66;5106957;27;20032;-74
2023/12/31 06:09:59;;;;;;;5.72;4.38;;;;;;;8.41;100.00;99693.09;5094983;28;20588;-74
2023/12/31 06:12:25;;;;;;;9.60;4.80;;;;;;;8.47;100.00;99691.81;5088456;27;20032;-74
2023/12/31 06:14:50;;;;;;;6.70;4.25;;;;;;;8.60;100.00;99675.81;5080292;27;20032;-74
2023/12/31 06:17:16;;;;;;;8.02;4.63;;;;;;;8.69;100.00;99672.50;5090923;28;20555;-75
2023/12/31 06:19:42;;;;;;;6.25;4.20;;;;;;;8.62;100.00;99661.44;5095582;27;20039;-73
2023/12/31 06:22:07;;;;;;;7.78;4.65;;;;;;;8.73;100.00;99663.31;5088786;28;20044;-74
2023/12/31 06:24:33;;;;;;;8.10;5.40;;;;;;;8.70;100.00;99675.03;5082346;28;20411;-74
2023/12/31 06:26:59;;;;;;;9.63;4.72;;;;;;;8.73;100.00;99666.81;5082854;28;20080;-75
2023/12/31 06:29:24;;;;;;;8.50;4.55;;;;;;;8.67;100.00;99659.28;5090837;28;20032;-73
2023/12/31 06:31:50;;;;;;;8.73;5.07;;;;;;;8.76;100.00;99660.44;5085888;28;20324;-74
2023/12/31 06:34:16;;;;;;;7.35;4.35;;;;;;;8.69;100.00;99644.09;5088888;28;20032;-72
2023/12/31 06:36:42;;;;;;;5.72;3.90;;;;;;;8.69;100.00;99648.56;5079659;28;20153;-74
2023/12/31 06:39:09;;;;;;;7.43;4.82;;;;;;;8.74;100.00;99652.56;5079116;28;20029;-72
2023/12/31 06:41:35;;;;;;;8.38;4.40;;;;;;;8.64;100.00;99656.88;5087626;28;21359;-72
2023/12/31 06:44:01;;;;;;;9.18;4.80;;;;;;;8.76;100.00;99647.97;5080118;28;20051;-74
2023/12/31 06:46:26;;;;;;;8.15;4.70;;;;;;;8.71;100.00;99628.03;5080916;28;20152;-72
2023/12/31 06:48:51;;;;;;;7.40;4.75;;;;;;;8.75;100.00;99632.16;5080812;27;20032;-72
2023/12/31 06:51:17;;;;;;;6.65;4.15;;;;;;;8.75;100.00;99632.16;5087321;28;20039;-72
2023/12/31 06:53:42;;;;;;;6.65;4.65;;;;;;;8.75;100.00;99624.19;5072622;28;20946;-73
2023/12/31 06:56:08;;;;;;;7.78;4.95;;;;;;;8.71;100.00;99614.75;5076117;28;20045;-72
2023/12/31 06:58:37;;;;;;;5.32;4.30;;;;;;;8.68;100.00;99622.94;5082690;28;20378;-73
2023/12/31 07:01:06;;;;;;;5.45;4.13;;;;;;;8.64;100.00;99621.50;5077247;28;20035;-73
2023/12/31 07:03:32;;;;;;;7.40;4.82;;;;;;;8.57;100.00;99605.13;5077876;27;20159;-73
2023/12/31 07:06:00;;;;;;;8.20;4.90;;;;;;;8.60;100.00;99607.59;5078882;28;20031;-75
2023/12/31 07:08:25;;;;;;;6.80;4.57;;;;;;;8.63;100.00;99612.66;5075798;28;20059;-72
2023/12/31 07:10:52;;;;;;;8.38;4.22;;;;;;;8.58;100.00;99604.16;5080415;28;20059;-72
2023/12/31 07:13:18;;;;;;;6.40;4.30;;;;;;;8.59;100.00;99589.09;5073596;28;20505;-72
2023/12/31 07:15:43;;;;;;;7.22;4.30;;;;;;;8.52;100.00;99591.34;5087466;27;20036;-73
2023/12/31 07:18:09;;;;;;;6.75;4.57;;;;;;;8.58;100.00;99588.22;5071091;28;20041;-72
2023/12/31 07:20:35;;;;;;;5.25;3.90;;;;;;;8.50;100.00;99587.97;5081547;28;20037;-74
2023/12/31 07:23:00;;;;;;;8.13;4.47;;;;;;;8.51;100.00;99571.06;5071027;28;20048;-74
2023/12/31 07:25:28;;;;;;;6.15;4.65;;;;;;;8.50;100.00;99583.50;5070230;28;20132;-75
2023/12/31 07:27:57;;;;;;;6.00;4.28;;;;;;;8.49;100.00;99579.16;5068815;28;20032;-74
2023/12/31 07:30:23;;;;;;;8.30;5.05;;;;;;;8.48;100.00;99577.47;5074531;28;20056;-74
2023/12/31 07:32:48;;;;;;;6.93;4.50;;;;;;;8.43;100.00;99584.91;5066723;28;20129;-74
2023/12/31 07:35:14;;;;;;;7.00;4.30;;;;;;;8.46;100.00;99575.88;5072545;27;20037;-75
2023/12/31 07:37:40;;;;;;;8.55;4.70;;;;;;;8.42;100.00;99569.94;5094140;27;20568;-75
2023/12/31 07:40:09;;;;;;;8.25;4.40;;;;;;;8.45;100.00;99569.72;5103028;27;20082;-73
2023/12/31 07:42:35;;;;;;;6.28;4.97;;;;;;;8.49;100.00;99563.22;5097939;27;20151;-73
2023/12/31 07:45:03;;;;;;;8.00;4.57;;;;;;;8.53;100.00;99564.69;5098698;27;20161;-75
2023/12/31 07:47:28;;;;;;;8.32;4.50;;;;;;;8.53;100.00;99564.69;5102253;27;20066;-73
2023/12/31 07:49:54;;;;;;;10.00;4.50;;;;;;;8.54;100.00;99571.69;5107762;27;20092;-72
2023/12/31 07:52:20;;;;;;;9.10;5.55;;;;;;;8.52;100.00;99559.47;5103001;27;20040;-74
2023/12/31 07:54:45;;;;;;;6.55;5.13;;;;;;;8.51;100.00;99561.28;5109753;27;20040;-74
2023/12/31 07:57:11;;;;;;;6.30;5.07;;;;;;;8.51;100.00;99566.59;5079440;28;20032;-74
2023/12/31 07:59:38;;;;;;;7.22;5.20;;;;;;;8.69;100.00;99558.22;5077669;27;20032;-73
2023/12/31 08:02:03;;;;;;;6.75;4.63;;;;;;;8.66;100.00;99556.63;5101408;27;20056;-72
2023/12/31 08:04:29;;;;;;;7.55;4.80;;;;;;;8.68;100.00;99551.19;5100006;27;20036;-73
2023/12/31 08:06:55;;;;;;;7.53;4.55;;;;;;;8.75;100.00;99547.09;5083339;27;20389;-74
2023/12/31 08:09:20;;;;;;;9.68;5.47;;;;;;;8.80;100.00;99548.44;5093530;27;20048;-73
2023/12/31 08:11:46;;;;;;;7.88;5.22;;;;;;;8.78;100.00;99541.53;5100298;27;20042;-73
2023/12/31 08:14:12;;;;;;;9.13;5.13;;;;;;;8.85;100.00;99533.97;5096101;27;20035;-74
2023/12/31 08:16:38;;;;;;;8.43;5.45;;;;;;;8.88;100.00;99531.88;5106058;27;20058;-75
2023/12/31 08:19:04;;;;;;;8.32;4.93;;;;;;;8.86;100.00;99536.50;5077795;28;20151;-72
2023/12/31 08:21:30;;;;;;;7.03;4.85;;;;;;;8.93;100.00;99524.41;5096184;27;20105;-72
2023/12/31 08:23:56;;;;;;;11.30;5.85;;;;;;;8.92;100.00;99522.72;5090757;27;20048;-74
2023/12/31 08:26:25;;;;;;;6.82;4.93;;;;;;;8.95;100.00;99530.47;5092580;27;20054;-73
2023/12/31 08:28:50;;;;;;;6.72;5.78;;;;;;;9.07;100.00;99520.69;5086717;27;20050;-73
2023/12/31 08:31:17;;;;;;;8.57;6.07;;;;;;;9.02;100.00;99510.41;5080987;27;20034;-73
2023/12/31 08:33:43;;;;;;;9.38;5.75;;;;;;;9.08;100.00;99514.38;5105786;27;20040;-73
2023/12/31 08:36:08;;;;;;;7.55;5.10;;;;;;;9.10;100.00;99503.66;5095854;27;21108;-73
2023/12/31 08:38:34;;;;;;;8.48;5.38;;;;;;;9.09;100.00;99502.81;5067129;28;20060;-73
2023/12/31 08:40:59;;;;;;;7.65;5.47;;;;;;;9.16;100.00;99501.34;5054331;28;20518;-73
2023/12/31 08:43:25;;;;;;;8.82;5.30;;;;;;;9.16;100.00;99481.88;5058318;28;20063;-73
2023/12/31 08:45:51;;;;;;;6.68;5.15;;;;;;;9.18;100.00;99471.97;5057822;28;20036;-75
2023/12/31 08:48:17;;;;;;;9.23;5.78;;;;;;;9.31;100.00;99476.19;5048809;28;20131;-74
2023/12/31 08:50:44;;;;;;;9.60;5.13;;;;;;;9.17;100.00;99484.41;5055423;28;20045;-73
2023/12/31 08:53:10;;;;;;;8.10;4.90;;;;;;;9.26;100.00;99477.53;5060322;28;20040;-73
2023/12/31 08:55:35;;;;;;;6.07;4.68;;;;;;;9.50;100.00;99475.56;5064055;28;20029;-73
2023/12/31 08:58:01;;;;;;;7.45;5.32;;;;;;;9.40;100.00;99476.44;5062835;28;20033;-73
2023/12/31 09:00:26;;;;;;;8.20;5.22;;;;;;;9.44;100.00;99476.06;5058630;28;20036;-74
2023/12/31 09:02:52;;;;;;;7.18;5.00;;;;;;;9.41;100.00;99470.13;5051042;28;20045;-73
2023/12/31 09:05:17;;;;;;;7.47;5.32;;;;;;;9.37;100.00;99479.31;5063064;28;20029;-73
2023/12/31 09:07:43;;;;;;;6.95;5.10;;;;;;;9.34;100.00;99475.94;5056560;28;20033;-73
2023/12/31 09:10:09;;;;;;;9.82;5.45;;;;;;;9.45;100.00;99466.25;5057950;28;20562;-73
2023/12/31 09:12:35;;;;;;;5.53;4.32;;;;;;;9.48;100.00;99463.34;5053073;28;20041;-74
2023/12/31 09:15:01;;;;;;;7.30;4.55;;;;;;;9.46;100.00;99458.13;5060139;28;20033;-74
2023/12/31 09:17:28;;;;;;;8.35;5.30;;;;;;;9.58;100.00;99464.28;5059932;28;20124;-73
2023/12/31 09:19:57;;;;;;;9.88;5.18;;;;;;;9.62;100.00;99457.72;5053869;28;20064;-73
2023/12/31 09:22:23;;;;;;;6.88;4.80;;;;;;;9.61;100.00;99453.38;5062119;28;20041;-73
2023/12/31 09:24:50;;;;;;;5.97;4.55;;;;;;;9.69;100.00;99453.63;5076938;28;20029;-73
2023/12/31 09:27:17;;;;;;;5.75;4.53;;;;;;;9.75;100.00;99454.94;5064500;28;20040;-74
2023/12/31 09:29:43;;;;;;;6.03;4.70;;;;;;;9.72;100.00;99458.66;5067737;28;20032;-74
2023/12/31 09:32:08;;;;;;;6.97;4.72;;;;;;;9.87;100.00;99464.56;5054026;28;20056;-73
2023/12/31 09:34:34;;;;;;;8.20;5.00;;;;;;;9.98;100.00;99469.00;5056119;28;20509;-73
2023/12/31 09:36:59;;;;;;;5.75;4.60;;;;;;;9.98;100.00;99469.81;5066230;28;20040;-73
2023/12/31 09:39:25;;;;;;;7.15;4.45;;;;;;;10.15;100.00;99457.78;5086418;27;20051;-74
2023/12/31 09:41:53;;;;;;;6.45;4.05;;;;;;;10.19;100.00;99469.88;5053673;28;20040;-73
2023/12/31 09:44:19;;;;;;;6.00;4.65;;;;;;;10.34;100.00;99471.28;5099693;27;20221;-72
2023/12/31 09:47:04;;;;;;;6.78;4.60;;;;;;;10.22;100.00;99480.25;5089983;27;20111;-73
2023/12/31 09:49:31;;;;;;;8.02;4.60;;;;;;;10.21;100.00;99472.41;5092905;27;20149;-73
2023/12/31 09:51:59;;;;;;;6.45;4.43;;;;;;;10.15;100.00;99476.44;5098039;27;20144;-74
2023/12/31 09:54:25;;;;;;;7.05;5.13;;;;;;;10.10;100.00;99483.97;5099071;27;20061;-73
2023/12/31 09:56:51;;;;;;;6.45;4.60;;;;;;;10.07;100.00;99494.84;5089296;28;20085;-74
2023/12/31 09:59:18;;;;;;;6.82;5.45;;;;;;;10.03;100.00;99504.06;5098724;27;20032;-74
2023/12/31 10:01:44;;;;;;;6.20;4.70;;;;;;;9.98;100.00;99499.13;5101392;27;20031;-73
2023/12/31 10:04:14;;;;;;;9.13;5.72;;;;;;;9.97;100.00;99505.44;5095818;27;20049;-73
2023/12/31 10:06:39;;;;;;;11.63;7.68;;;;;;;9.88;100.00;99505.34;5093801;27;20081;-73
2023/12/31 10:09:07;;;;;;;10.30;7.43;;;;;;;9.68;100.00;99506.97;5099949;27;20088;-73
2023/12/31 10:11:33;;;;;;;8.30;6.18;;;;;;;9.70;100.00;99495.22;5096554;27;20050;-72
2023/12/31 10:13:59;;;;;;;7.53;5.68;;;;;;;9.43;100.00;99502.75;5092094;27;20036;-73
2023/12/31 10:16:33;;;;;;;11.68;6.38;;;;;;;9.49;100.00;99511.13;5096701;27;20299;-73
2023/12/31 10:18:59;;;;;;;8.82;6.18;;;;;;;9.62;100.00;99516.28;5103270;27;20640;-73
2023/12/31 10:21:25;;;;;;;11.40;6.13;;;;;;;9.62;100.00;99521.59;5091205;27;20032;-73
2023/12/31 10:23:51;;;;;;;8.45;6.20;;;;;;;9.68;100.00;99512.28;5111679;27;20055;-74
2023/12/31 10:26:17;;;;;;;10.20;6.07;;;;;;;9.60;100.00;99508.44;5104357;27;20032;-73
2023/12/31 10:28:42;;;;;;;10.18;5.90;;;;;;;9.64;100.00;99510.84;5103791;27;20048;-73
2023/12/31 10:31:08;;;;;;;8.40;5.78;;;;;;;9.64;100.00;99516.16;5106389;27;20037;-73
2023/12/31 10:33:36;;;;;;;8.57;6.03;;;;;;;9.64;100.00;99508.16;5108517;27;20654;-73
2023/12/31 10:36:06;;;;;;;8.25;5.68;;;;;;;9.77;100.00;99501.72;5115042;27;20035;-72
2023/12/31 10:38:45;;;;;;;6.82;4.50;;;;;;;9.81;100.00;99505.84;5109464;27;20051;-73
2023/12/31 10:41:17;;;;;;;7.13;5.00;;;;;;;9.91;100.00;99502.44;5110286;27;20080;-73
2023/12/31 10:43:48;;;;;;;7.20;5.65;;;;;;;9.85;100.00;99493.97;5117913;27;20039;-74
2023/12/31 10:46:14;;;;;;;8.93;4.82;;;;;;;9.73;100.00;99499.44;5106391;27;20036;-74
2023/12/31 10:49:01;;;;;;;9.32;5.20;;;;;;;9.90;100.00;99501.59;5104747;27;20159;-73
2023/12/31 10:51:26;;;;;;;7.10;3.97;;;;;;;9.85;100.00;99496.63;5080650;27;20031;-73
2023/12/31 10:53:57;;;;;;;7.85;4.43;;;;;;;10.01;100.00;99492.72;5114320;27;20036;-73
2023/12/31 10:56:24;;;;;;;5.25;4.07;;;;;;;9.85;100.00;99493.13;5101023;27;21016;-74
2023/12/31 10:58:58;;;;;;;4.10;3.35;;;;;;;9.81;100.00;99486.38;5107178;27;20343;-73
2023/12/31 11:01:25;;;;;;;5.78;3.10;;;;;;;9.91;100.00;99489.97;5094397;27;20033;-73
2023/12/31 11:03:52;;;;;;;5.32;3.40;;;;;;;9.92;100.00;99483.66;5107850;27;20352;-74
2023/12/31 11:06:18;;;;;;;5.63;2.63;;;;;;;9.93;100.00;99474.69;5104990;27;20106;-74
2023/12/31 11:08:45;;;;;;;3.97;2.60;;;;;;;9.85;100.00;99472.69;5106960;27;20521;-73
2023/12/31 11:11:11;;;;;;;7.13;2.53;;;;;;;9.88;100.00;99478.72;5107512;27;20032;-74
2023/12/31 11:13:40;;;;;;;3.67;2.03;;;;;;;9.88;100.00;99476.88;5103704;27;20111;-73
2023/12/31 11:16:14;;;;;;;6.63;2.90;;;;;;;9.74;100.00;99479.84;5104969;28;20046;-73
2023/12/31 11:19:22;;;;;;;4.75;1.83;;;;;;;9.66;100.00;99480.47;5110234;27;20068;-74
2023/12/31 11:21:56;;;;;;;4.20;1.73;;;;;;;9.78;100.00;99481.28;5110637;27;20040;-73
2023/12/31 11:24:24;;;;;;;4.90;1.50;;;;;;;9.85;100.00;99479.81;5100470;27;20292;-73